Time;durP1;ratioP1;P1;durP2;ratioP2;P2;SDS_P1;SDS_P2;PMS_P1;PMS_P2;Temp;Humidity;BMP_temperature;BMP_pressure;BME280_temperature;BME280_humidity;BME280_pressure;Samples;Min_cycle;Max_cycle;Signal;HPM_P1;HPM_P2
2023/12/07 00:01:06;;;;;;;1.05;0.65;;;17.20;42.60;;;;;;5131057;28;20134;-68
2023/12/07 00:03:32;;;;;;;1.90;0.80;;;17.20;42.60;;;;;;5131160;28;20039;-68
2023/12/07 00:05:57;;;;;;;1.23;0.85;;;17.20;42.60;;;;;;5132367;28;20042;-68
2023/12/07 00:08:23;;;;;;;0.80;0.52;;;17.20;42.60;;;;;;5132518;28;20039;-68
2023/12/07 00:10:49;;;;;;;1.10;0.75;;;17.20;42.60;;;;;;5131429;28;20050;-68
2023/12/07 00:13:15;;;;;;;1.15;0.82;;;17.20;42.60;;;;;;5132399;28;20035;-68
2023/12/07 00:15:40;;;;;;;0.93;0.50;;;17.20;42.60;;;;;;5130768;28;20064;-68
2023/12/07 00:18:06;;;;;;;1.27;0.80;;;17.10;42.60;;;;;;5132408;28;20446;-65
2023/12/07 00:20:32;;;;;;;0.90;0.60;;;17.10;42.60;;;;;;5131028;28;20072;-68
2023/12/07 00:22:57;;;;;;;1.10;0.75;;;17.40;42.70;;;;;;5133130;27;20035;-68
2023/12/07 00:25:23;;;;;;;1.17;0.70;;;17.80;41.90;;;;;;5136138;27;20116;-65
2023/12/07 00:27:49;;;;;;;1.02;0.60;;;18.10;41.20;;;;;;5134904;27;20078;-69
2023/12/07 00:30:15;;;;;;;0.95;0.70;;;18.40;40.60;;;;;;5135990;27;20091;-68
2023/12/07 00:32:44;;;;;;;1.80;0.52;;;18.80;39.90;;;;;;5134529;27;20550;-69
2023/12/07 00:35:10;;;;;;;1.10;0.57;;;19.20;39.10;;;;;;5134562;27;20039;-68
2023/12/07 00:37:36;;;;;;;1.40;0.70;;;19.80;38.30;;;;;;5134409;27;20122;-68
2023/12/07 00:40:03;;;;;;;0.98;0.68;;;20.30;37.40;;;;;;5134674;27;20110;-68
2023/12/07 00:42:28;;;;;;;1.08;0.65;;;20.80;36.50;;;;;;5134657;27;20039;-68
2023/12/07 00:44:55;;;;;;;1.20;0.65;;;21.40;35.70;;;;;;5134433;27;20042;-68
2023/12/07 00:47:20;;;;;;;1.38;0.77;;;21.90;34.90;;;;;;5135553;27;20406;-68
2023/12/07 00:49:46;;;;;;;1.02;0.70;;;22.30;34.30;;;;;;5134476;27;20043;-68
2023/12/07 00:52:12;;;;;;;1.90;1.02;;;22.60;33.70;;;;;;5135532;27;20038;-68
2023/12/07 00:54:39;;;;;;;0.70;0.40;;;22.90;33.30;;;;;;5135482;27;20122;-68
2023/12/07 00:57:05;;;;;;;0.80;0.40;;;23.10;32.90;;;;;;5135458;27;20390;-66
2023/12/07 00:59:33;;;;;;;1.08;0.50;;;23.30;32.60;;;;;;5134001;27;20043;-68
2023/12/07 01:02:01;;;;;;;1.38;0.52;;;23.50;32.40;;;;;;5134291;27;20387;-68
2023/12/07 01:04:28;;;;;;;1.10;0.52;;;23.70;32.20;;;;;;5133875;27;20057;-68
2023/12/07 01:06:54;;;;;;;1.10;0.60;;;23.80;32.00;;;;;;5134203;27;20053;-68
2023/12/07 01:09:19;;;;;;;0.60;0.40;;;23.90;31.80;;;;;;5135300;27;20129;-68
2023/12/07 01:11:45;;;;;;;0.88;0.43;;;24.10;31.70;;;;;;5135092;27;20043;-68
2023/12/07 01:14:11;;;;;;;0.80;0.30;;;24.10;31.50;;;;;;5133743;27;20043;-68
2023/12/07 01:16:37;;;;;;;0.70;0.50;;;24.20;31.40;;;;;;5133387;27;20047;-68
2023/12/07 01:19:02;;;;;;;0.88;0.50;;;24.20;31.30;;;;;;5133547;27;20043;-68
2023/12/07 01:21:28;;;;;;;1.00;0.47;;;24.30;31.30;;;;;;5135154;27;20050;-68
2023/12/07 01:23:54;;;;;;;1.02;0.50;;;24.40;31.20;;;;;;5133578;27;20046;-68
2023/12/07 01:26:20;;;;;;;0.77;0.40;;;24.40;31.10;;;;;;5133874;27;20061;-68
2023/12/07 01:28:45;;;;;;;1.00;0.50;;;24.50;31.00;;;;;;5133767;27;20467;-68
2023/12/07 01:31:11;;;;;;;0.80;0.60;;;24.50;31.00;;;;;;5133697;27;20051;-65
2023/12/07 01:33:36;;;;;;;0.68;0.30;;;24.50;31.00;;;;;;5134616;27;20262;-68
2023/12/07 01:36:02;;;;;;;1.08;0.47;;;24.60;31.00;;;;;;5132799;27;20047;-68
2023/12/07 01:38:28;;;;;;;1.23;0.55;;;24.60;30.90;;;;;;5112766;28;20126;-66
2023/12/07 01:40:53;;;;;;;1.00;0.40;;;24.60;30.80;;;;;;5112927;28;20039;-68
2023/12/07 01:43:22;;;;;;;1.10;0.60;;;24.60;30.80;;;;;;5112734;28;20047;-68
2023/12/07 01:45:51;;;;;;;0.82;0.55;;;24.70;30.80;;;;;;5112866;28;20057;-67
2023/12/07 01:48:16;;;;;;;1.15;0.57;;;24.70;30.80;;;;;;5112530;28;20055;-68
2023/12/07 01:50:42;;;;;;;1.00;0.47;;;24.70;30.80;;;;;;5112813;28;20061;-67
2023/12/07 01:53:09;;;;;;;0.77;0.50;;;24.70;30.70;;;;;;5112729;28;20499;-68
2023/12/07 01:55:35;;;;;;;0.90;0.40;;;24.70;30.70;;;;;;5112309;28;20078;-65
2023/12/07 01:58:01;;;;;;;0.80;0.38;;;24.70;30.70;;;;;;5113683;28;20070;-68
2023/12/07 02:00:27;;;;;;;1.10;0.68;;;24.70;30.70;;;;;;5112270;28;20050;-68
2023/12/07 02:02:53;;;;;;;1.15;0.50;;;24.70;30.70;;;;;;5113496;28;20474;-68
2023/12/07 02:05:19;;;;;;;0.70;0.40;;;24.70;30.80;;;;;;5112163;28;20040;-68
2023/12/07 02:07:46;;;;;;;0.73;0.50;;;24.70;30.80;;;;;;5112515;28;20091;-68
2023/12/07 02:10:13;;;;;;;0.68;0.35;;;24.70;30.80;;;;;;5112365;28;20046;-67
2023/12/07 02:12:39;;;;;;;1.08;0.40;;;24.70;30.80;;;;;;5112075;28;20044;-68
2023/12/07 02:15:06;;;;;;;0.80;0.30;;;24.70;30.80;;;;;;5113135;28;20394;-68
2023/12/07 02:17:38;;;;;;;0.88;0.55;;;24.60;30.80;;;;;;5111882;28;20055;-68
2023/12/07 02:20:36;;;;;;;0.70;0.50;;;24.60;31.00;;;;;;5113684;28;20036;-68
2023/12/07 02:23:07;;;;;;;0.80;0.40;;;24.50;31.10;;;;;;5112019;28;20044;-68
2023/12/07 02:25:37;;;;;;;;;;;24.40;31.10;;;;;;5113649;28;20406;-68
2023/12/07 02:28:03;;;;;;;;;;;24.40;31.20;;;;;;5112507;28;20332;-68
2023/12/07 02:30:29;;;;;;;0.82;0.38;;;24.40;31.10;;;;;;5111800;28;19920;-68
2023/12/07 02:32:54;;;;;;;0.85;0.40;;;24.50;31.00;;;;;;5113011;28;20394;-68
2023/12/07 02:35:20;;;;;;;1.30;0.60;;;24.50;31.00;;;;;;5111626;28;20043;-68
2023/12/07 02:37:49;;;;;;;2.58;0.40;;;24.50;31.00;;;;;;5126920;27;20051;-68
2023/12/07 02:40:21;;;;;;;0.65;0.30;;;24.50;31.00;;;;;;5133497;27;20150;-67
2023/12/07 02:42:48;;;;;;;0.70;0.40;;;24.50;31.00;;;;;;5132523;27;20043;-67
2023/12/07 02:45:15;;;;;;;0.73;0.50;;;24.50;30.90;;;;;;5133228;27;20081;-68
2023/12/07 02:47:43;;;;;;;0.80;0.50;;;24.60;30.90;;;;;;5133207;27;20031;-68
2023/12/07 02:50:09;;;;;;;1.23;0.32;;;24.60;30.80;;;;;;5133389;27;20439;-68
2023/12/07 02:52:35;;;;;;;0.82;0.40;;;24.70;30.90;;;;;;5131857;27;20087;-68
2023/12/07 02:55:01;;;;;;;1.27;0.47;;;24.60;30.80;;;;;;5131935;27;20043;-68
2023/12/07 02:57:26;;;;;;;1.48;0.75;;;24.60;31.00;;;;;;5131724;27;20047;-68
2023/12/07 02:59:52;;;;;;;1.20;0.40;;;24.60;31.00;;;;;;5133387;27;20503;-68
2023/12/07 03:02:17;;;;;;;0.88;0.50;;;24.60;30.90;;;;;;5132054;27;20579;-68
2023/12/07 03:04:43;;;;;;;0.60;0.30;;;24.60;30.90;;;;;;5133150;27;20114;-68
2023/12/07 03:07:12;;;;;;;1.10;0.50;;;24.60;30.90;;;;;;5132033;27;20043;-68
2023/12/07 03:09:37;;;;;;;0.90;0.40;;;24.60;30.90;;;;;;5133025;27;20043;-68
2023/12/07 03:12:03;;;;;;;0.60;0.30;;;24.50;30.90;;;;;;5131873;27;20122;-68
2023/12/07 03:14:29;;;;;;;0.70;0.40;;;24.50;30.90;;;;;;5131645;27;20050;-69
2023/12/07 03:16:54;;;;;;;0.75;0.40;;;24.50;31.00;;;;;;5131476;27;20108;-68
2023/12/07 03:19:20;;;;;;;1.00;0.50;;;24.50;31.00;;;;;;5131574;28;20608;-69
2023/12/07 03:21:46;;;;;;;0.80;0.38;;;24.50;31.00;;;;;;5131681;28;20316;-68
2023/12/07 03:24:11;;;;;;;0.85;0.40;;;24.50;31.00;;;;;;5131544;28;20039;-68
2023/12/07 03:26:38;;;;;;;0.65;0.40;;;24.50;31.00;;;;;;5131528;28;20139;-68
2023/12/07 03:29:03;;;;;;;1.13;0.60;;;24.40;31.10;;;;;;5131604;28;20053;-68
2023/12/07 03:31:29;;;;;;;1.05;0.50;;;24.40;31.00;;;;;;5131815;28;20039;-68
2023/12/07 03:33:56;;;;;;;0.73;0.30;;;24.40;31.00;;;;;;5132905;27;20452;-68
2023/12/07 03:36:22;;;;;;;0.75;0.40;;;24.40;31.00;;;;;;5128202;28;20035;-68
2023/12/07 03:38:48;;;;;;;1.60;0.40;;;24.40;31.00;;;;;;5112167;28;20087;-68
2023/12/07 03:41:14;;;;;;;0.73;0.43;;;24.40;31.10;;;;;;5110904;28;20043;-68
2023/12/07 03:43:40;;;;;;;0.93;0.40;;;24.40;31.10;;;;;;5112013;28;20040;-68
2023/12/07 03:46:06;;;;;;;0.85;0.63;;;24.40;31.10;;;;;;5111141;28;20051;-68
2023/12/07 03:48:33;;;;;;;0.50;0.30;;;24.30;31.00;;;;;;5112170;28;20491;-68
2023/12/07 03:51:00;;;;;;;0.57;0.32;;;24.40;31.10;;;;;;5111027;28;20062;-68
2023/12/07 03:53:25;;;;;;;0.88;0.40;;;24.40;31.10;;;;;;5111104;28;20039;-68
2023/12/07 03:55:51;;;;;;;1.63;0.50;;;24.40;31.10;;;;;;5110944;28;20114;-68
2023/12/07 03:58:17;;;;;;;0.50;0.30;;;24.40;31.10;;;;;;5112266;28;20097;-68
2023/12/07 04:00:44;;;;;;;0.75;0.40;;;24.40;31.10;;;;;;5114943;28;20073;-68
2023/12/07 04:03:10;;;;;;;0.63;0.30;;;24.40;31.10;;;;;;5116078;28;20027;-68
2023/12/07 04:05:36;;;;;;;0.93;0.40;;;24.40;31.10;;;;;;5114605;28;20047;-68
2023/12/07 04:08:01;;;;;;;0.65;0.30;;;24.40;31.10;;;;;;5115970;28;20387;-67
2023/12/07 04:10:27;;;;;;;1.02;0.50;;;24.40;31.10;;;;;;5115753;28;20043;-68
2023/12/07 04:12:52;;;;;;;0.50;0.30;;;24.40;31.10;;;;;;5114547;28;20152;-68
2023/12/07 04:15:19;;;;;;;0.90;0.40;;;24.30;31.10;;;;;;5113954;28;20050;-68
2023/12/07 04:17:45;;;;;;;0.60;0.30;;;24.30;31.10;;;;;;5115827;28;20043;-68
2023/12/07 04:20:12;;;;;;;0.52;0.40;;;24.30;31.10;;;;;;5115551;28;20084;-68
2023/12/07 04:22:39;;;;;;;0.80;0.30;;;24.30;31.20;;;;;;5115915;28;20039;-68
2023/12/07 04:25:05;;;;;;;0.75;0.30;;;24.30;31.20;;;;;;5114559;28;20074;-68
2023/12/07 04:27:31;;;;;;;1.77;0.43;;;24.30;31.30;;;;;;5114431;28;20043;-68
2023/12/07 04:29:57;;;;;;;0.93;0.40;;;24.20;31.10;;;;;;5114348;28;20410;-68
2023/12/07 04:32:23;;;;;;;1.20;0.40;;;24.20;31.20;;;;;;5114366;28;20187;-68
2023/12/07 04:34:49;;;;;;;0.82;0.30;;;24.20;31.20;;;;;;5115358;28;20047;-64
2023/12/07 04:37:15;;;;;;;0.68;0.50;;;24.20;31.20;;;;;;5124586;27;20042;-68
2023/12/07 04:39:41;;;;;;;0.50;0.30;;;24.30;31.30;;;;;;5134752;27;20486;-68
2023/12/07 04:42:06;;;;;;;0.50;0.30;;;24.20;31.40;;;;;;5134644;27;20039;-68
2023/12/07 04:44:32;;;;;;;0.77;0.40;;;24.20;31.30;;;;;;5134423;27;20046;-68
2023/12/07 04:46:58;;;;;;;1.70;0.95;;;24.20;31.30;;;;;;5134618;27;20043;-68
2023/12/07 04:49:23;;;;;;;0.60;0.30;;;24.10;31.30;;;;;;5134821;27;20394;-68
2023/12/07 04:51:49;;;;;;;1.17;0.50;;;24.20;31.40;;;;;;5134196;27;20394;-68
2023/12/07 04:54:15;;;;;;;0.80;0.40;;;24.10;31.30;;;;;;5134508;27;20389;-68
2023/12/07 04:56:44;;;;;;;0.70;0.40;;;24.20;31.40;;;;;;5135363;27;20042;-69
2023/12/07 04:59:10;;;;;;;0.57;0.33;;;24.10;31.40;;;;;;5134652;27;20605;-68
2023/12/07 05:01:36;;;;;;;0.45;0.30;;;24.20;31.40;;;;;;5134024;27;20134;-68
2023/12/07 05:04:03;;;;;;;0.68;0.30;;;24.10;31.40;;;;;;5135351;27;20038;-68
2023/12/07 05:06:30;;;;;;;0.63;0.40;;;24.10;31.40;;;;;;5133921;27;20307;-68
2023/12/07 05:08:55;;;;;;;0.90;0.45;;;24.20;31.40;;;;;;5133876;27;20039;-68
2023/12/07 05:11:21;;;;;;;0.70;0.40;;;24.20;31.40;;;;;;5135149;27;20493;-68
2023/12/07 05:13:47;;;;;;;0.88;0.40;;;24.20;31.30;;;;;;5134135;27;20419;-68
2023/12/07 05:16:13;;;;;;;0.70;0.40;;;24.20;31.30;;;;;;5134692;27;20057;-68
2023/12/07 05:18:39;;;;;;;0.68;0.40;;;24.20;31.20;;;;;;5133859;27;20118;-68
2023/12/07 05:21:05;;;;;;;0.50;0.30;;;24.20;31.20;;;;;;5133998;27;20046;-68
2023/12/07 05:23:31;;;;;;;0.70;0.40;;;24.30;31.20;;;;;;5133645;27;20179;-68
2023/12/07 05:25:56;;;;;;;1.15;0.40;;;24.40;31.20;;;;;;5134968;27;20075;-68
2023/12/07 05:28:22;;;;;;;0.75;0.35;;;24.40;31.10;;;;;;5133479;27;20043;-68
2023/12/07 05:30:48;;;;;;;0.60;0.30;;;24.40;31.10;;;;;;5133444;27;20039;-68
2023/12/07 05:33:14;;;;;;;0.77;0.38;;;24.40;31.00;;;;;;5134720;27;20027;-68
2023/12/07 05:35:40;;;;;;;0.80;0.45;;;24.40;31.10;;;;;;5134643;27;20095;-69
2023/12/07 05:38:05;;;;;;;0.85;0.50;;;24.40;31.30;;;;;;5133608;27;20536;-68
2023/12/07 05:40:31;;;;;;;0.68;0.35;;;24.40;31.10;;;;;;5133324;27;20069;-68
2023/12/07 05:42:57;;;;;;;0.85;0.52;;;24.30;31.10;;;;;;5133466;27;20390;-68
2023/12/07 05:45:23;;;;;;;0.75;0.30;;;24.30;31.10;;;;;;5133117;27;20035;-68
2023/12/07 05:47:48;;;;;;;0.70;0.40;;;24.30;31.10;;;;;;5134666;27;20065;-68
2023/12/07 05:50:14;;;;;;;0.50;0.30;;;24.30;31.10;;;;;;5133434;27;20114;-68
2023/12/07 05:52:40;;;;;;;0.70;0.30;;;24.30;31.10;;;;;;5133093;27;20046;-68
2023/12/07 05:55:06;;;;;;;0.70;0.30;;;24.20;31.10;;;;;;5133475;27;20126;-68
2023/12/07 05:57:31;;;;;;;0.80;0.30;;;24.20;31.20;;;;;;5133009;27;20080;-68
2023/12/07 05:59:57;;;;;;;0.70;0.30;;;24.20;31.20;;;;;;5132912;27;20114;-68
2023/12/07 06:02:23;;;;;;;0.63;0.38;;;24.20;31.20;;;;;;5133082;27;20127;-68
2023/12/07 06:04:49;;;;;;;0.75;0.38;;;24.20;31.20;;;;;;5132772;27;20477;-68
2023/12/07 06:07:15;;;;;;;0.52;0.30;;;24.20;31.30;;;;;;5132766;27;20167;-68
2023/12/07 06:09:41;;;;;;;0.60;0.30;;;24.20;31.20;;;;;;5132749;27;20067;-68
2023/12/07 06:12:07;;;;;;;0.52;0.40;;;24.20;31.20;;;;;;5132970;27;20051;-68
2023/12/07 06:14:32;;;;;;;0.70;0.40;;;24.10;31.20;;;;;;5133915;27;20042;-65
2023/12/07 06:16:59;;;;;;;0.80;0.40;;;24.10;31.20;;;;;;5132299;27;20051;-68
2023/12/07 06:19:25;;;;;;;0.60;0.30;;;24.10;31.20;;;;;;5132431;27;20106;-69
2023/12/07 06:21:50;;;;;;;0.80;0.40;;;24.10;31.20;;;;;;5132191;27;20053;-68
2023/12/07 06:24:16;;;;;;;0.90;0.40;;;24.10;31.20;;;;;;5133845;27;20031;-68
2023/12/07 06:26:42;;;;;;;0.50;0.30;;;24.10;31.30;;;;;;5132557;27;20043;-68
2023/12/07 06:29:07;;;;;;;0.70;0.35;;;24.10;31.30;;;;;;5133595;27;20077;-68
2023/12/07 06:31:33;;;;;;;2.42;0.60;;;24.10;31.30;;;;;;5126986;27;20447;-65
2023/12/07 06:34:00;;;;;;;3.72;1.20;;;24.10;31.30;;;;;;5132640;27;20030;-68
2023/12/07 06:36:26;;;;;;;1.10;0.90;;;24.10;32.70;;;;;;5116525;27;20043;-65
2023/12/07 06:38:54;;;;;;;1.00;0.82;;;24.00;34.00;;;;;;5126091;27;20044;-70
2023/12/07 06:41:20;;;;;;;1.25;0.98;;;24.00;34.70;;;;;;5118993;27;20044;-70
2023/12/07 06:43:46;;;;;;;1.50;1.20;;;23.90;35.00;;;;;;5131696;27;20042;-69
2023/12/07 06:46:12;;;;;;;2.55;1.50;;;23.80;35.00;;;;;;5131642;27;20170;-68
2023/12/07 06:48:41;;;;;;;2.10;1.88;;;23.90;35.00;;;;;;5131435;27;20062;-69
2023/12/07 06:51:07;;;;;;;5.97;2.00;;;23.80;34.60;;;;;;5130820;27;20061;-69
2023/12/07 06:53:33;;;;;;;2.75;2.55;;;23.90;34.10;;;;;;5130665;27;20055;-67
2023/12/07 06:55:58;;;;;;;1.90;1.70;;;24.00;33.30;;;;;;5129693;27;20050;-69
2023/12/07 06:58:24;;;;;;;5.80;1.77;;;24.20;32.90;;;;;;5120705;27;20043;-70
2023/12/07 07:00:50;;;;;;;1.52;1.30;;;24.30;32.70;;;;;;5112801;27;20040;-69
2023/12/07 07:03:16;;;;;;;3.40;1.25;;;24.30;32.50;;;;;;5105952;28;20035;-70
2023/12/07 07:05:42;;;;;;;4.68;1.33;;;24.40;32.30;;;;;;5116878;27;20039;-70
2023/12/07 07:08:08;;;;;;;2.28;1.70;;;24.40;32.80;;;;;;5123165;27;20027;-72
2023/12/07 07:10:34;;;;;;;3.25;1.80;;;24.50;31.70;;;;;;5120937;27;20704;-71
2023/12/07 07:13:04;;;;;;;1.65;1.50;;;24.50;31.60;;;;;;5102700;27;20059;-72
2023/12/07 07:15:31;;;;;;;2.30;2.10;;;24.50;31.60;;;;;;5122098;27;20062;-68
2023/12/07 07:17:57;;;;;;;1.90;1.70;;;24.40;31.50;;;;;;5122405;27;20051;-69
2023/12/07 07:20:23;;;;;;;3.17;1.42;;;24.40;31.40;;;;;;5118396;28;20035;-69
2023/12/07 07:22:48;;;;;;;4.22;1.75;;;24.40;31.40;;;;;;5136763;27;20039;-69
2023/12/07 07:25:15;;;;;;;1.48;1.30;;;24.40;31.40;;;;;;5125246;28;20038;-68
2023/12/07 07:27:42;;;;;;;1.60;1.17;;;24.30;31.30;;;;;;5126695;28;20108;-69
2023/12/07 07:30:08;;;;;;;1.90;1.77;;;24.30;31.30;;;;;;5128133;27;20035;-71
2023/12/07 07:32:34;;;;;;;2.28;1.17;;;24.30;31.20;;;;;;5127198;27;20026;-69
2023/12/07 07:35:00;;;;;;;1.88;1.55;;;24.20;31.20;;;;;;5128041;27;20435;-69
2023/12/07 07:37:26;;;;;;;2.10;1.58;;;24.30;31.20;;;;;;5127231;27;20065;-69
2023/12/07 07:39:54;;;;;;;2.00;1.17;;;24.20;31.20;;;;;;5121856;27;20039;-69
2023/12/07 07:42:20;;;;;;;2.42;1.83;;;24.20;31.10;;;;;;5121326;27;20060;-65
2023/12/07 07:44:45;;;;;;;5.38;3.45;;;24.20;31.20;;;;;;5119276;27;20039;-69
2023/12/07 07:47:11;;;;;;;5.32;2.75;;;24.10;30.80;;;;;;5121839;27;20348;-68
2023/12/07 07:49:37;;;;;;;5.45;2.85;;;24.10;30.50;;;;;;5117003;27;20039;-69
2023/12/07 07:52:04;;;;;;;2.42;2.10;;;24.10;30.50;;;;;;5120554;27;20118;-69
2023/12/07 07:54:30;;;;;;;4.30;1.70;;;24.10;30.60;;;;;;5119344;27;20201;-69
2023/12/07 07:56:56;;;;;;;2.08;1.60;;;24.20;30.80;;;;;;5123993;27;20043;-65
2023/12/07 07:59:22;;;;;;;2.22;1.40;;;24.20;31.00;;;;;;5120481;27;20035;-67
2023/12/07 08:01:47;;;;;;;4.65;1.80;;;24.20;31.10;;;;;;5121199;27;20035;-66
2023/12/07 08:04:13;;;;;;;2.22;1.13;;;24.40;31.10;;;;;;5119807;27;20035;-68
2023/12/07 08:06:39;;;;;;;1.73;1.40;;;24.60;30.90;;;;;;5122364;27;20188;-69
2023/12/07 08:09:05;;;;;;;3.38;1.30;;;24.90;30.40;;;;;;5116392;27;20050;-71
2023/12/07 08:11:32;;;;;;;3.17;1.48;;;25.00;30.10;;;;;;5119033;27;20359;-64
2023/12/07 08:13:58;;;;;;;3.38;1.50;;;25.10;30.10;;;;;;5117744;27;20047;-69
2023/12/07 08:16:24;;;;;;;3.08;1.30;;;25.20;30.00;;;;;;5120858;27;20058;-69
2023/12/07 08:18:49;;;;;;;2.88;1.30;;;25.40;29.90;;;;;;5120145;27;20405;-66
2023/12/07 08:21:23;;;;;;;4.68;1.50;;;25.50;29.80;;;;;;5119449;27;20377;-70
2023/12/07 08:23:49;;;;;;;2.47;1.23;;;25.50;29.80;;;;;;5117349;27;20076;-70
2023/12/07 08:26:15;;;;;;;3.55;1.30;;;25.40;29.90;;;;;;5117675;27;20173;-71
2023/12/07 08:28:41;;;;;;;3.97;1.50;;;25.30;30.00;;;;;;5123837;27;20138;-71
2023/12/07 08:31:07;;;;;;;1.10;0.70;;;25.20;30.00;;;;;;5118558;27;20093;-69
2023/12/07 08:33:34;;;;;;;2.97;1.70;;;25.10;30.00;;;;;;5115075;27;20527;-70
2023/12/07 08:36:01;;;;;;;2.30;1.15;;;25.10;30.00;;;;;;5120148;27;20101;-65
2023/12/07 08:38:27;;;;;;;2.88;1.45;;;25.10;30.00;;;;;;5120621;27;20070;-66
2023/12/07 08:40:52;;;;;;;3.20;1.23;;;25.10;30.00;;;;;;5119406;27;20479;-70
2023/12/07 08:43:23;;;;;;;2.03;1.38;;;25.00;30.00;;;;;;5112644;27;20032;-75
2023/12/07 08:45:50;;;;;;;3.40;1.00;;;24.80;30.20;;;;;;5119406;27;20077;-74
2023/12/07 08:48:15;;;;;;;6.28;0.98;;;24.60;30.50;;;;;;5117040;27;20679;-73
2023/12/07 08:50:41;;;;;;;2.17;1.13;;;24.40;30.80;;;;;;5110832;27;20047;-67
2023/12/07 08:53:07;;;;;;;2.63;1.08;;;24.30;31.10;;;;;;5131553;27;20039;-70
2023/12/07 08:55:32;;;;;;;2.95;1.35;;;24.00;31.20;;;;;;5119003;27;20034;-69
2023/12/07 08:57:59;;;;;;;2.50;1.30;;;23.90;31.50;;;;;;5118807;27;20423;-70
2023/12/07 09:00:25;;;;;;;3.40;0.98;;;23.80;31.70;;;;;;5118478;27;20065;-71
2023/12/07 09:02:51;;;;;;;3.47;0.80;;;23.70;31.80;;;;;;5114180;27;20050;-72
2023/12/07 09:05:18;;;;;;;4.55;1.80;;;23.70;32.00;;;;;;5118738;27;20078;-71
2023/12/07 09:07:44;;;;;;;1.92;1.27;;;23.70;32.20;;;;;;5116958;27;20122;-67
2023/12/07 09:10:10;;;;;;;1.92;0.95;;;23.70;32.20;;;;;;5113733;27;20566;-73
2023/12/07 09:12:36;;;;;;;2.08;1.27;;;23.70;32.40;;;;;;5116223;27;20037;-68
2023/12/07 09:15:03;;;;;;;2.70;1.30;;;23.70;32.40;;;;;;5117020;27;20114;-69
2023/12/07 09:17:29;;;;;;;2.15;0.98;;;23.80;32.40;;;;;;5117736;27;20396;-67
2023/12/07 09:19:55;;;;;;;3.50;1.00;;;23.80;32.40;;;;;;5119625;27;20043;-69
2023/12/07 09:22:21;;;;;;;3.72;0.95;;;23.90;32.50;;;;;;5115487;27;20043;-66
2023/12/07 09:24:46;;;;;;;4.15;0.68;;;24.00;32.50;;;;;;5116128;27;20050;-67
2023/12/07 09:27:13;;;;;;;1.25;0.73;;;24.10;32.20;;;;;;5119154;27;20398;-66
2023/12/07 09:29:39;;;;;;;1.65;0.50;;;24.30;31.90;;;;;;5119292;27;20027;-67
2023/12/07 09:32:06;;;;;;;2.88;1.05;;;24.50;31.70;;;;;;5118473;27;20053;-68
2023/12/07 09:34:32;;;;;;;2.42;0.90;;;24.50;31.50;;;;;;5117087;27;20050;-66
2023/12/07 09:37:09;;;;;;;4.07;1.63;;;24.30;31.60;;;;;;5119603;27;20043;-67
2023/12/07 09:39:35;;;;;;;5.30;2.30;;;24.10;31.70;;;;;;5113113;27;20046;-64
2023/12/07 09:42:02;;;;;;;3.22;1.48;;;23.70;32.50;;;;;;5114410;27;20047;-68
2023/12/07 09:44:28;;;;;;;1.88;1.55;;;23.40;32.80;;;;;;5114640;27;20039;-68
2023/12/07 09:46:54;;;;;;;3.95;1.40;;;23.30;32.40;;;;;;5119678;27;20040;-68
2023/12/07 09:49:21;;;;;;;3.63;1.52;;;23.20;32.40;;;;;;5117060;27;20545;-69
2023/12/07 09:51:47;;;;;;;5.97;1.23;;;23.20;32.20;;;;;;5117178;27;20084;-70
2023/12/07 09:54:13;;;;;;;2.97;1.38;;;23.30;32.20;;;;;;5113950;27;20062;-69
2023/12/07 09:56:39;;;;;;;2.20;1.20;;;23.50;32.10;;;;;;5113040;27;20039;-68
2023/12/07 09:59:06;;;;;;;1.40;1.08;;;23.70;32.00;;;;;;5115765;27;20034;-65
2023/12/07 10:01:34;;;;;;;1.58;1.20;;;23.80;31.90;;;;;;5116241;27;20434;-67
2023/12/07 10:06:56;;;;;;;4.30;0.95;;;24.00;31.80;;;;;;5049171;27;20465;-67
2023/12/07 10:09:22;;;;;;;2.17;1.00;;;24.30;31.80;;;;;;5054092;28;20140;-67
2023/12/07 10:11:48;;;;;;;3.28;0.98;;;24.30;31.70;;;;;;5072088;28;20037;-68
2023/12/07 10:14:14;;;;;;;2.47;1.10;;;24.40;31.70;;;;;;5032933;28;20037;-64
2023/12/07 10:16:57;;;;;;;2.42;0.80;;;24.50;31.50;;;;;;5038233;28;20040;-66
2023/12/07 10:19:23;;;;;;;2.40;1.00;;;24.50;31.40;;;;;;5038798;28;20439;-68
2023/12/07 10:21:50;;;;;;;1.65;1.05;;;24.50;31.40;;;;;;5070557;28;20091;-67
2023/12/07 10:24:17;;;;;;;2.00;0.70;;;24.50;31.50;;;;;;5038545;28;20485;-67
2023/12/07 10:26:47;;;;;;;2.88;1.30;;;24.60;31.50;;;;;;5037888;28;20405;-66
2023/12/07 10:29:12;;;;;;;5.47;1.20;;;24.50;31.40;;;;;;5039492;28;20489;-68
2023/12/07 10:31:38;;;;;;;2.40;0.80;;;24.50;31.40;;;;;;5071185;28;20298;-64
2023/12/07 10:34:05;;;;;;;2.97;0.70;;;24.50;31.50;;;;;;5070886;28;20417;-68
2023/12/07 10:36:32;;;;;;;3.08;0.80;;;24.50;31.50;;;;;;5038192;28;20627;-68
2023/12/07 10:38:58;;;;;;;2.75;1.35;;;24.60;31.40;;;;;;5070514;28;20096;-67
2023/12/07 10:41:25;;;;;;;4.70;1.00;;;24.70;31.20;;;;;;5034471;28;20033;-69
2023/12/07 10:43:54;;;;;;;7.07;1.08;;;24.80;31.00;;;;;;5036950;28;20056;-65
2023/12/07 10:46:21;;;;;;;3.08;0.90;;;24.70;31.00;;;;;;5066052;28;20614;-71
2023/12/07 10:48:51;;;;;;;2.70;0.70;;;24.60;31.20;;;;;;5038420;28;20051;-67
2023/12/07 10:51:31;;;;;;;3.70;0.80;;;24.40;31.40;;;;;;5033537;28;20056;-68
2023/12/07 10:53:58;;;;;;;1.30;1.00;;;24.30;31.60;;;;;;5039242;28;20044;-69
2023/12/07 10:56:34;;;;;;;2.45;1.02;;;24.10;31.80;;;;;;5038082;28;21236;-70
2023/12/07 10:59:00;;;;;;;2.47;0.73;;;23.90;32.30;;;;;;5038155;28;20373;-67
2023/12/07 11:01:26;;;;;;;1.92;0.98;;;24.00;32.50;;;;;;5036475;28;20397;-68
2023/12/07 11:03:53;;;;;;;1.65;0.55;;;24.10;32.50;;;;;;5036462;28;20041;-67
2023/12/07 11:06:19;;;;;;;1.88;0.73;;;24.30;32.20;;;;;;5058462;28;20322;-69
2023/12/07 11:08:49;;;;;;;2.78;0.65;;;24.50;32.00;;;;;;5039341;28;20536;-69
2023/12/07 11:11:29;;;;;;;1.52;1.05;;;24.50;31.90;;;;;;5026755;28;20695;-73
2023/12/07 11:14:11;;;;;;;1.77;0.75;;;24.60;31.70;;;;;;5032524;28;20652;-69
2023/12/07 11:16:40;;;;;;;1.83;1.05;;;24.50;32.00;;;;;;5029275;28;20078;-71
2023/12/07 11:22:12;;;;;;;5.03;1.67;;;24.30;32.10;;;;;;5072205;27;20383;-70
2023/12/07 11:24:38;;;;;;;7.30;2.22;;;24.10;32.30;;;;;;5054009;28;20231;-69
2023/12/07 11:27:04;;;;;;;5.30;1.63;;;23.70;32.40;;;;;;5058330;28;20396;-72
2023/12/07 11:29:31;;;;;;;10.30;1.88;;;23.50;32.60;;;;;;5055188;28;20280;-71
2023/12/07 11:32:06;;;;;;;3.88;1.77;;;23.30;32.90;;;;;;5058534;28;20567;-70
2023/12/07 11:37:20;;;;;;;2.40;1.23;;;23.20;33.00;;;;;;5097120;27;20340;-67
2023/12/07 11:39:45;;;;;;;1.88;1.30;;;23.20;33.20;;;;;;5088692;28;20376;-71
2023/12/07 11:42:15;;;;;;;2.70;1.20;;;23.30;32.90;;;;;;5093445;28;20043;-70
2023/12/07 11:44:44;;;;;;;3.92;1.52;;;23.50;32.80;;;;;;5088744;28;20048;-69
2023/12/07 11:47:16;;;;;;;5.88;1.45;;;23.60;32.60;;;;;;5101350;27;20055;-67
2023/12/07 11:49:42;;;;;;;4.30;1.60;;;23.70;32.70;;;;;;5092658;28;20267;-70
2023/12/07 11:52:18;;;;;;;3.50;1.42;;;23.80;32.80;;;;;;5089145;28;20070;-66
2023/12/07 11:54:46;;;;;;;2.65;0.95;;;23.80;32.90;;;;;;5093343;28;20028;-67
2023/12/07 11:57:13;;;;;;;4.25;1.38;;;23.90;32.80;;;;;;5125336;27;20127;-67
2023/12/07 11:59:39;;;;;;;3.67;1.45;;;24.00;32.90;;;;;;5092130;28;20444;-67
2023/12/07 12:02:05;;;;;;;4.18;1.23;;;24.00;33.00;;;;;;5120572;27;20063;-68
2023/12/07 12:04:31;;;;;;;5.32;1.58;;;24.00;33.10;;;;;;5089901;28;20039;-69
2023/12/07 12:06:56;;;;;;;3.42;1.30;;;24.10;33.20;;;;;;5126351;27;20391;-69
2023/12/07 12:09:24;;;;;;;2.63;1.55;;;24.10;33.30;;;;;;5092658;28;20584;-67
2023/12/07 12:11:50;;;;;;;3.90;1.30;;;24.10;33.50;;;;;;5091975;28;20032;-67
2023/12/07 12:14:16;;;;;;;5.38;1.20;;;24.10;33.70;;;;;;5099577;27;20404;-69
2023/12/07 12:16:44;;;;;;;1.80;1.00;;;24.10;33.70;;;;;;5087420;28;20044;-75
2023/12/07 12:19:10;;;;;;;3.00;1.00;;;24.20;33.70;;;;;;5093139;28;20040;-69
2023/12/07 12:21:39;;;;;;;4.00;1.05;;;24.40;33.60;;;;;;5120280;27;20052;-77
2023/12/07 12:24:05;;;;;;;1.65;0.93;;;24.70;33.40;;;;;;5121862;27;20032;-73
2023/12/07 12:26:34;;;;;;;3.28;0.70;;;25.00;33.80;;;;;;5089242;28;20495;-66
2023/12/07 12:29:01;;;;;;;2.08;0.98;;;25.20;32.70;;;;;;5091960;28;20078;-67
2023/12/07 12:31:27;;;;;;;2.95;0.80;;;25.30;32.60;;;;;;5096307;28;20070;-72
2023/12/07 12:33:53;;;;;;;3.70;0.75;;;25.30;32.60;;;;;;5092569;28;20554;-71
2023/12/07 12:36:23;;;;;;;3.65;1.60;;;25.20;32.70;;;;;;5094165;28;20052;-70
2023/12/07 12:38:50;;;;;;;2.47;1.10;;;25.00;32.60;;;;;;5126571;27;20055;-68
2023/12/07 12:41:20;;;;;;;2.33;0.90;;;24.70;32.90;;;;;;5091819;28;20458;-71
2023/12/07 12:43:46;;;;;;;4.85;1.60;;;24.40;34.20;;;;;;5090473;28;20384;-67
2023/12/07 12:46:13;;;;;;;5.85;1.80;;;24.00;33.80;;;;;;5120289;27;20046;-72
2023/12/07 12:49:00;;;;;;;3.38;1.20;;;23.70;34.40;;;;;;5082281;28;20439;-67
2023/12/07 12:51:27;;;;;;;7.15;1.98;;;23.40;34.90;;;;;;5078154;28;20320;-73
2023/12/07 12:53:55;;;;;;;3.83;1.90;;;23.30;35.30;;;;;;5072239;28;20035;-68